Time;durP1;ratioP1;P1;durP2;ratioP2;P2;SDS_P1;SDS_P2;PMS_P1;PMS_P2;Temp;Humidity;BMP_temperature;BMP_pressure;BME280_temperature;BME280_humidity;BME280_pressure;Samples;Min_cycle;Max_cycle;Signal;HPM_P1;HPM_P2
2021/11/21 00:00:08;;;;;;;36.30;19.10;;;;;;;;;;5032702;28;20768;-50
2021/11/21 00:02:34;;;;;;;27.47;17.50;;;;;;;;;;5032521;28;20504;-50
2021/11/21 00:05:00;;;;;;;30.70;18.03;;;;;;;;;;5032646;28;20452;-50
2021/11/21 00:07:26;;;;;;;37.47;19.73;;;;;;;;;;5032532;28;20409;-51
2021/11/21 00:09:52;;;;;;;37.20;19.20;;;;;;;;;;5032776;28;20497;-51
2021/11/21 00:12:19;;;;;;;32.40;17.97;;;;;;;;;;5032541;28;20453;-50
2021/11/21 00:14:45;;;;;;;26.40;16.80;;;;;;;;;;5032183;28;20438;-51
2021/11/21 00:17:11;;;;;;;30.80;17.80;;;;;;;;;;5032208;28;20457;-50
2021/11/21 00:19:40;;;;;;;30.40;17.97;;;;;;;;;;5032271;28;20409;-50
2021/11/21 00:22:06;;;;;;;29.60;17.47;;;;;;;;;;5032089;28;20422;-51
2021/11/21 00:24:32;;;;;;;33.17;17.03;;;;;;;;;;5032228;28;20413;-52
2021/11/21 00:26:58;;;;;;;29.37;18.10;;;;;;;;;;5032299;28;20492;-51
2021/11/21 00:29:24;;;;;;;32.37;18.00;;;;;;;;;;5032265;28;20412;-51
2021/11/21 00:31:50;;;;;;;31.33;17.43;;;;;;;;;;5032221;28;20497;-51
2021/11/21 00:34:16;;;;;;;28.97;18.47;;;;;;;;;;5032365;28;20439;-52
2021/11/21 00:36:42;;;;;;;31.57;17.33;;;;;;;;;;5031762;28;20888;-51
2021/11/21 00:39:08;;;;;;;33.37;18.90;;;;;;;;;;5032117;28;20435;-52
2021/11/21 00:41:34;;;;;;;32.97;18.40;;;;;;;;;;5031989;28;20410;-51
2021/11/21 00:44:00;;;;;;;38.77;18.77;;;;;;;;;;5032161;28;20839;-52
2021/11/21 00:46:26;;;;;;;35.93;19.03;;;;;;;;;;5031747;28;20408;-50
2021/11/21 00:48:53;;;;;;;38.17;19.57;;;;;;;;;;5032001;28;20405;-51
2021/11/21 00:51:19;;;;;;;35.67;18.53;;;;;;;;;;5034963;28;20614;-51
2021/11/21 00:53:51;;;;;;;32.97;19.20;;;;;;;;;;5035895;28;20422;-50
2021/11/21 00:56:17;;;;;;;35.00;20.20;;;;;;;;;;5035757;28;20416;-52
2021/11/21 00:58:43;;;;;;;36.60;19.97;;;;;;;;;;5035937;28;20459;-52
2021/11/21 01:01:09;;;;;;;40.97;20.47;;;;;;;;;;5036082;28;20400;-51
2021/11/21 01:03:35;;;;;;;41.67;21.17;;;;;;;;;;5035985;28;20472;-50
2021/11/21 01:06:01;;;;;;;35.03;20.13;;;;;;;;;;5036009;28;20410;-51
2021/11/21 01:08:28;;;;;;;40.77;20.80;;;;;;;;;;5036265;28;20411;-52
2021/11/21 01:10:56;;;;;;;42.30;21.30;;;;;;;;;;5034884;28;20409;-51
2021/11/21 01:13:22;;;;;;;40.40;20.67;;;;;;;;;;5035824;28;20428;-52
2021/11/21 01:15:48;;;;;;;35.10;19.80;;;;;;;;;;5035720;28;20944;-52
2021/11/21 01:18:15;;;;;;;39.03;20.53;;;;;;;;;;5035886;28;20489;-51
2021/11/21 01:20:42;;;;;;;37.23;21.13;;;;;;;;;;5036231;28;20406;-51
2021/11/21 01:23:10;;;;;;;37.80;20.63;;;;;;;;;;5035881;28;20423;-52
2021/11/21 01:25:36;;;;;;;41.03;22.33;;;;;;;;;;5035476;28;20410;-51
2021/11/21 01:28:02;;;;;;;38.27;21.13;;;;;;;;;;5035384;28;20407;-51
2021/11/21 01:30:29;;;;;;;44.83;20.30;;;;;;;;;;5035643;28;20780;-50
2021/11/21 01:32:56;;;;;;;44.30;22.20;;;;;;;;;;5035801;28;20448;-51
2021/11/21 01:35:23;;;;;;;42.67;21.97;;;;;;;;;;5035337;28;20417;-50
2021/11/21 01:37:49;;;;;;;43.40;20.20;;;;;;;;;;5035336;28;20463;-50
2021/11/21 01:40:16;;;;;;;43.10;22.03;;;;;;;;;;5035521;28;20394;-50
2021/11/21 01:42:43;;;;;;;36.73;20.63;;;;;;;;;;5035151;28;20436;-50
2021/11/21 01:45:10;;;;;;;42.47;21.77;;;;;;;;;;5034933;28;20410;-52
2021/11/21 01:47:37;;;;;;;44.33;21.87;;;;;;;;;;5035143;28;20418;-52
2021/11/21 01:50:04;;;;;;;46.03;21.90;;;;;;;;;;5035326;28;20847;-51
2021/11/21 01:52:29;;;;;;;40.23;21.20;;;;;;;;;;5034842;28;20428;-51
2021/11/21 01:54:55;;;;;;;38.60;22.30;;;;;;;;;;5034776;28;20408;-51
2021/11/21 01:57:21;;;;;;;41.20;21.00;;;;;;;;;;5034906;28;20452;-50
2021/11/21 01:59:48;;;;;;;41.30;20.93;;;;;;;;;;5034905;28;20404;-49
2021/11/21 02:02:14;;;;;;;34.17;17.87;;;;;;;;;;5034523;28;20433;-51
2021/11/21 02:04:41;;;;;;;35.83;19.63;;;;;;;;;;5034655;28;20406;-51
2021/11/21 02:07:07;;;;;;;37.33;19.33;;;;;;;;;;5034810;28;20419;-51
2021/11/21 02:09:33;;;;;;;39.17;18.87;;;;;;;;;;5034816;28;20415;-51
2021/11/21 02:11:59;;;;;;;34.33;18.47;;;;;;;;;;5034637;28;20423;-52
2021/11/21 02:14:25;;;;;;;36.23;18.80;;;;;;;;;;5034748;28;20431;-50
2021/11/21 02:16:51;;;;;;;35.70;19.73;;;;;;;;;;5034425;28;20415;-52
2021/11/21 02:19:18;;;;;;;40.47;19.93;;;;;;;;;;5034789;28;20400;-50
2021/11/21 02:21:44;;;;;;;35.90;18.87;;;;;;;;;;5034649;28;20478;-52
2021/11/21 02:24:10;;;;;;;34.90;17.90;;;;;;;;;;5034582;28;20404;-51
2021/11/21 02:26:36;;;;;;;38.10;19.10;;;;;;;;;;5034171;28;20823;-52
2021/11/21 02:29:03;;;;;;;40.77;18.90;;;;;;;;;;5034396;28;20409;-51
2021/11/21 02:31:29;;;;;;;35.80;18.90;;;;;;;;;;5034431;28;20508;-51
2021/11/21 02:33:55;;;;;;;40.60;20.47;;;;;;;;;;5034027;28;20940;-52
2021/11/21 02:36:23;;;;;;;35.17;18.40;;;;;;;;;;5034125;28;20408;-51
2021/11/21 02:38:49;;;;;;;36.90;18.90;;;;;;;;;;5034226;28;20467;-50
2021/11/21 02:41:15;;;;;;;32.17;16.80;;;;;;;;;;5034230;28;20500;-50
2021/11/21 02:43:43;;;;;;;31.33;17.63;;;;;;;;;;5033917;28;20433;-51
2021/11/21 02:46:09;;;;;;;36.53;17.17;;;;;;;;;;5033921;28;20875;-51
2021/11/21 02:48:36;;;;;;;34.10;18.23;;;;;;;;;;5034096;28;20408;-50
2021/11/21 02:51:03;;;;;;;34.60;16.80;;;;;;;;;;5033806;28;20497;-51
2021/11/21 02:53:30;;;;;;;31.70;17.43;;;;;;;;;;5033786;28;20432;-50
2021/11/21 02:55:58;;;;;;;29.37;15.63;;;;;;;;;;5033800;28;20494;-52
2021/11/21 02:58:24;;;;;;;31.87;17.90;;;;;;;;;;5033789;28;20447;-50
2021/11/21 03:00:51;;;;;;;28.50;16.67;;;;;;;;;;5033935;28;20416;-52
2021/11/21 03:03:17;;;;;;;28.87;15.60;;;;;;;;;;5033829;28;20420;-51
2021/11/21 03:05:43;;;;;;;34.80;15.57;;;;;;;;;;5033598;28;20856;-52
2021/11/21 03:08:09;;;;;;;27.10;15.40;;;;;;;;;;5033938;28;20433;-51
2021/11/21 03:10:36;;;;;;;32.13;16.13;;;;;;;;;;5033812;28;20405;-50
2021/11/21 03:13:03;;;;;;;31.20;15.87;;;;;;;;;;5033350;28;20855;-52
2021/11/21 03:15:29;;;;;;;33.47;16.57;;;;;;;;;;5033124;28;20398;-52
2021/11/21 03:17:56;;;;;;;30.53;17.30;;;;;;;;;;5033418;28;20977;-50
2021/11/21 03:20:23;;;;;;;31.20;17.27;;;;;;;;;;5033371;28;20908;-51
2021/11/21 03:22:49;;;;;;;36.23;16.57;;;;;;;;;;5033355;28;20416;-50
2021/11/21 03:25:15;;;;;;;31.47;16.90;;;;;;;;;;5033522;28;20394;-51
2021/11/21 03:27:42;;;;;;;31.97;15.13;;;;;;;;;;5033615;28;20483;-50
2021/11/21 03:30:12;;;;;;;32.47;16.03;;;;;;;;;;5033781;28;20400;-51
2021/11/21 03:32:39;;;;;;;37.63;17.80;;;;;;;;;;5033715;28;20418;-50
2021/11/21 03:35:05;;;;;;;32.00;16.30;;;;;;;;;;5033100;28;20427;-53
2021/11/21 03:37:31;;;;;;;36.03;18.07;;;;;;;;;;5033277;28;20488;-50
2021/11/21 03:39:57;;;;;;;33.40;15.90;;;;;;;;;;5033291;28;20406;-50
2021/11/21 03:42:24;;;;;;;33.43;16.30;;;;;;;;;;5032891;28;20422;-52
2021/11/21 03:44:50;;;;;;;28.37;14.50;;;;;;;;;;5032752;28;20906;-51
2021/11/21 03:47:16;;;;;;;38.67;18.80;;;;;;;;;;5032832;28;20409;-51
2021/11/21 03:49:42;;;;;;;33.67;16.53;;;;;;;;;;5033183;28;20491;-52
2021/11/21 03:52:08;;;;;;;40.50;17.70;;;;;;;;;;5033044;28;20544;-51
2021/11/21 03:54:34;;;;;;;36.53;17.43;;;;;;;;;;5032918;28;20449;-51
2021/11/21 03:57:00;;;;;;;35.47;17.50;;;;;;;;;;5033387;28;20405;-51
2021/11/21 03:59:26;;;;;;;35.73;18.23;;;;;;;;;;5033367;28;20406;-51
2021/11/21 04:01:54;;;;;;;37.53;19.90;;;;;;;;;;5032861;28;20425;-50
2021/11/21 04:04:21;;;;;;;44.60;19.70;;;;;;;;;;5032803;28;20402;-50
2021/11/21 04:06:47;;;;;;;38.87;18.97;;;;;;;;;;5032771;28;20401;-51
2021/11/21 04:09:13;;;;;;;39.70;18.70;;;;;;;;;;5032618;28;20419;-50
2021/11/21 04:11:39;;;;;;;37.27;17.53;;;;;;;;;;5032634;28;20402;-51
2021/11/21 04:14:05;;;;;;;36.10;16.87;;;;;;;;;;5032549;28;20408;-52
2021/11/21 04:16:31;;;;;;;43.40;20.27;;;;;;;;;;5032345;28;20409;-51
2021/11/21 04:18:57;;;;;;;33.33;17.73;;;;;;;;;;5032361;28;20460;-50
2021/11/21 04:21:23;;;;;;;30.27;14.53;;;;;;;;;;5032637;28;20399;-49
2021/11/21 04:23:49;;;;;;;30.00;16.23;;;;;;;;;;5033013;28;20825;-50
2021/11/21 04:26:15;;;;;;;30.57;16.07;;;;;;;;;;5032065;28;20403;-51
2021/11/21 04:28:42;;;;;;;39.60;17.73;;;;;;;;;;5032208;28;20408;-50
2021/11/21 04:31:08;;;;;;;35.27;15.83;;;;;;;;;;5032437;28;20840;-50
2021/11/21 04:33:35;;;;;;;33.60;16.00;;;;;;;;;;5127546;22;20504;-51
2021/11/21 04:36:01;;;;;;;29.97;15.17;;;;;;;;;;5011405;28;20402;-51
2021/11/21 04:38:27;;;;;;;32.97;16.20;;;;;;;;;;5011885;28;20948;-51
2021/11/21 04:40:53;;;;;;;32.10;15.50;;;;;;;;;;5012086;28;20408;-50
2021/11/21 04:43:20;;;;;;;26.50;14.97;;;;;;;;;;5011849;28;20921;-51
2021/11/21 04:45:46;;;;;;;27.77;15.10;;;;;;;;;;5011677;28;20918;-51
2021/11/21 04:48:12;;;;;;;28.33;14.40;;;;;;;;;;5011911;28;20409;-51
2021/11/21 04:50:38;;;;;;;33.40;13.30;;;;;;;;;;5011896;28;20419;-53
2021/11/21 04:53:05;;;;;;;33.80;15.57;;;;;;;;;;5011747;28;20933;-51
2021/11/21 04:55:31;;;;;;;36.37;14.17;;;;;;;;;;5011719;28;20406;-52
2021/11/21 04:57:57;;;;;;;25.90;14.53;;;;;;;;;;5011714;28;20452;-51
2021/11/21 05:00:24;;;;;;;27.57;15.20;;;;;;;;;;5011817;28;20498;-53
2021/11/21 05:02:51;;;;;;;31.73;14.70;;;;;;;;;;5011560;28;20449;-51
2021/11/21 05:05:19;;;;;;;31.53;15.77;;;;;;;;;;5011463;28;20427;-51
2021/11/21 05:07:48;;;;;;;35.43;16.10;;;;;;;;;;5004373;28;20424;-51
2021/11/21 05:10:16;;;;;;;31.00;15.87;;;;;;;;;;5004208;28;20430;-52
2021/11/21 05:12:42;;;;;;;30.90;15.60;;;;;;;;;;5011742;28;20924;-51
2021/11/21 05:15:09;;;;;;;37.30;16.50;;;;;;;;;;5011642;28;20926;-52
2021/11/21 05:17:37;;;;;;;34.13;16.60;;;;;;;;;;5010654;28;20522;-51
2021/11/21 05:20:04;;;;;;;32.30;15.83;;;;;;;;;;5010878;28;20416;-52
2021/11/21 05:22:30;;;;;;;33.93;18.70;;;;;;;;;;5009633;28;20800;-51
2021/11/21 05:24:57;;;;;;;30.87;15.53;;;;;;;;;;5010253;28;20933;-51
2021/11/21 05:27:24;;;;;;;30.87;17.07;;;;;;;;;;5011455;28;20402;-51
2021/11/21 05:29:50;;;;;;;34.60;16.27;;;;;;;;;;5011357;28;20438;-51
2021/11/21 05:32:16;;;;;;;32.07;16.37;;;;;;;;;;5011237;28;20438;-51
2021/11/21 05:34:42;;;;;;;35.67;16.90;;;;;;;;;;5011167;28;20405;-51
2021/11/21 05:37:08;;;;;;;36.47;18.17;;;;;;;;;;5012468;28;20954;-51
2021/11/21 05:39:34;;;;;;;35.50;18.40;;;;;;;;;;5015256;28;20487;-51
2021/11/21 05:42:01;;;;;;;39.50;17.17;;;;;;;;;;5014992;28;20550;-51
2021/11/21 05:44:27;;;;;;;34.80;17.60;;;;;;;;;;5014873;28;20434;-51
2021/11/21 05:46:53;;;;;;;40.33;18.33;;;;;;;;;;5014625;28;20394;-51
2021/11/21 05:49:20;;;;;;;33.97;17.33;;;;;;;;;;5014792;28;20800;-51
2021/11/21 05:51:46;;;;;;;39.67;18.23;;;;;;;;;;5014805;28;20410;-51
2021/11/21 05:54:12;;;;;;;39.83;19.50;;;;;;;;;;5014660;28;20416;-51
2021/11/21 05:56:38;;;;;;;49.00;18.60;;;;;;;;;;5014590;28;20502;-51
2021/11/21 05:59:04;;;;;;;42.43;19.70;;;;;;;;;;5014548;28;20842;-51
2021/11/21 06:01:30;;;;;;;36.33;18.00;;;;;;;;;;5014536;28;20442;-51
2021/11/21 06:03:58;;;;;;;38.80;18.47;;;;;;;;;;5014376;28;20421;-52
2021/11/21 06:06:24;;;;;;;45.03;18.53;;;;;;;;;;5014324;28;20405;-51
2021/11/21 06:08:50;;;;;;;35.37;16.60;;;;;;;;;;5014475;28;20464;-51
2021/11/21 06:11:16;;;;;;;43.67;20.17;;;;;;;;;;5014422;28;20410;-51
2021/11/21 06:13:43;;;;;;;31.17;16.80;;;;;;;;;;5014242;28;20847;-51
2021/11/21 06:16:09;;;;;;;35.67;17.30;;;;;;;;;;5014059;28;20479;-51
2021/11/21 06:18:35;;;;;;;35.73;16.87;;;;;;;;;;5014170;28;20530;-51
2021/11/21 06:21:01;;;;;;;41.40;19.20;;;;;;;;;;5014631;28;20463;-51
2021/11/21 06:23:32;;;;;;;35.93;17.47;;;;;;;;;;5014190;28;20451;-51
2021/11/21 06:25:58;;;;;;;41.70;18.40;;;;;;;;;;5014074;28;20398;-51
2021/11/21 06:28:26;;;;;;;39.50;18.50;;;;;;;;;;5014119;28;20488;-51
2021/11/21 06:30:52;;;;;;;34.63;19.07;;;;;;;;;;5014128;28;20785;-51
2021/11/21 06:33:19;;;;;;;33.93;16.53;;;;;;;;;;5013742;28;20850;-51
2021/11/21 06:35:47;;;;;;;40.80;18.63;;;;;;;;;;5013861;28;20459;-51
2021/11/21 06:38:15;;;;;;;36.20;18.87;;;;;;;;;;5013862;28;20539;-51
2021/11/21 06:40:41;;;;;;;37.43;18.57;;;;;;;;;;5013953;28;20438;-51
2021/11/21 06:43:07;;;;;;;33.87;17.40;;;;;;;;;;5013545;28;20417;-52
2021/11/21 06:45:33;;;;;;;36.10;16.47;;;;;;;;;;5013638;28;20408;-51
2021/11/21 06:47:59;;;;;;;38.27;17.30;;;;;;;;;;5013569;28;20487;-51
2021/11/21 06:50:26;;;;;;;44.80;20.20;;;;;;;;;;5013684;28;20844;-51
2021/11/21 06:52:53;;;;;;;49.83;17.93;;;;;;;;;;5013652;28;20810;-51
2021/11/21 06:55:19;;;;;;;41.57;17.97;;;;;;;;;;5013367;28;20947;-51
2021/11/21 06:57:45;;;;;;;40.77;19.50;;;;;;;;;;5013418;28;20456;-51
2021/11/21 07:00:13;;;;;;;44.47;19.00;;;;;;;;;;5013513;28;20418;-52
2021/11/21 07:02:39;;;;;;;40.00;20.13;;;;;;;;;;5013470;28;20504;-51
2021/11/21 07:05:05;;;;;;;37.27;18.70;;;;;;;;;;5013118;28;20409;-51
2021/11/21 07:07:31;;;;;;;47.40;19.60;;;;;;;;;;5013438;28;20439;-51
2021/11/21 07:09:57;;;;;;;43.37;18.20;;;;;;;;;;5013273;28;20396;-51
2021/11/21 07:12:23;;;;;;;42.27;18.60;;;;;;;;;;5013190;28;20842;-51
2021/11/21 07:14:50;;;;;;;47.47;20.30;;;;;;;;;;5012934;28;20496;-51
2021/11/21 07:17:16;;;;;;;38.83;19.43;;;;;;;;;;5013162;28;20454;-52
2021/11/21 07:19:43;;;;;;;39.80;18.43;;;;;;;;;;5013089;28;20409;-52
2021/11/21 07:22:09;;;;;;;43.47;19.87;;;;;;;;;;5013087;28;20963;-51
2021/11/21 07:24:35;;;;;;;42.13;17.80;;;;;;;;;;5012746;28;20401;-52
2021/11/21 07:27:01;;;;;;;39.37;17.40;;;;;;;;;;5013202;28;20413;-53
2021/11/21 07:29:29;;;;;;;48.87;19.43;;;;;;;;;;5012975;28;20414;-50
2021/11/21 07:31:56;;;;;;;37.87;18.73;;;;;;;;;;5012815;28;20433;-51
2021/11/21 07:34:22;;;;;;;38.60;17.40;;;;;;;;;;5012794;28;20409;-51
2021/11/21 07:36:48;;;;;;;44.30;18.93;;;;;;;;;;5012816;28;20781;-51
2021/11/21 07:39:15;;;;;;;34.67;15.53;;;;;;;;;;5012725;28;20446;-51
2021/11/21 07:41:41;;;;;;;36.27;16.90;;;;;;;;;;5012604;28;20407;-51
2021/11/21 07:44:09;;;;;;;30.23;14.60;;;;;;;;;;5012607;28;20403;-51
2021/11/21 07:46:37;;;;;;;30.87;15.63;;;;;;;;;;5012531;28;20460;-51
2021/11/21 07:49:04;;;;;;;25.70;13.20;;;;;;;;;;5012764;28;20410;-51
2021/11/21 07:51:31;;;;;;;28.87;13.70;;;;;;;;;;5012651;28;20404;-52
2021/11/21 07:53:57;;;;;;;27.90;13.53;;;;;;;;;;5012350;28;20438;-52
2021/11/21 07:56:25;;;;;;;27.47;12.60;;;;;;;;;;5012249;28;20911;-53
2021/11/21 07:58:51;;;;;;;27.83;14.10;;;;;;;;;;5012473;28;20464;-51
2021/11/21 08:01:18;;;;;;;31.33;13.30;;;;;;;;;;5011884;28;20413;-52
2021/11/21 08:03:44;;;;;;;25.33;13.00;;;;;;;;;;5012335;28;20793;-51
2021/11/21 08:06:11;;;;;;;28.20;12.70;;;;;;;;;;5012125;28;20907;-51
2021/11/21 08:08:37;;;;;;;25.73;12.20;;;;;;;;;;5012385;28;20490;-51
2021/11/21 08:11:03;;;;;;;23.97;11.77;;;;;;;;;;5012254;28;20421;-51
2021/11/21 08:13:29;;;;;;;20.17;10.73;;;;;;;;;;5012270;28;20418;-51
2021/11/21 08:15:55;;;;;;;17.47;10.00;;;;;;;;;;5012056;28;20489;-51
2021/11/21 08:18:21;;;;;;;19.90;10.60;;;;;;;;;;5012244;28;20483;-51
2021/11/21 08:20:49;;;;;;;22.47;10.40;;;;;;;;;;5012232;28;20440;-51
2021/11/21 08:23:15;;;;;;;19.37;10.63;;;;;;;;;;5012036;28;20432;-52
2021/11/21 08:25:41;;;;;;;18.20;10.43;;;;;;;;;;5011892;28;20408;-52
2021/11/21 08:28:07;;;;;;;19.80;10.90;;;;;;;;;;5012189;28;20824;-51
2021/11/21 08:30:36;;;;;;;16.23;8.60;;;;;;;;;;5012071;28;20396;-51
2021/11/21 08:33:03;;;;;;;14.37;8.90;;;;;;;;;;5011906;28;20534;-51
2021/11/21 08:35:29;;;;;;;19.03;9.37;;;;;;;;;;5011809;28;20430;-51
2021/11/21 08:37:57;;;;;;;17.23;10.20;;;;;;;;;;5012119;28;20804;-51
2021/11/21 08:40:23;;;;;;;21.80;11.20;;;;;;;;;;5011950;28;20401;-51
2021/11/21 08:42:49;;;;;;;14.40;8.57;;;;;;;;;;5011985;28;20424;-52
2021/11/21 08:45:15;;;;;;;15.90;8.47;;;;;;;;;;5011667;28;20411;-51
2021/11/21 08:47:41;;;;;;;12.70;8.30;;;;;;;;;;5012031;28;20472;-51
2021/11/21 08:50:08;;;;;;;16.93;9.10;;;;;;;;;;5011871;28;20405;-51
2021/11/21 08:52:34;;;;;;;19.43;10.10;;;;;;;;;;5011815;28;21105;-51
2021/11/21 08:55:00;;;;;;;19.33;9.27;;;;;;;;;;5011547;28;20459;-51
2021/11/21 08:57:26;;;;;;;17.63;9.80;;;;;;;;;;5011872;28;20451;-51
2021/11/21 08:59:52;;;;;;;17.60;10.93;;;;;;;;;;5011820;28;20753;-51
2021/11/21 09:02:19;;;;;;;18.50;10.77;;;;;;;;;;5011667;28;20471;-52
2021/11/21 09:04:45;;;;;;;15.13;10.17;;;;;;;;;;5011461;28;20430;-51
2021/11/21 09:07:11;;;;;;;18.37;10.63;;;;;;;;;;5011796;28;20445;-51
2021/11/21 09:09:37;;;;;;;18.73;9.27;;;;;;;;;;5011801;28;20402;-51
2021/11/21 09:12:03;;;;;;;16.87;11.10;;;;;;;;;;5012629;28;20430;-51
2021/11/21 09:14:29;;;;;;;19.40;10.67;;;;;;;;;;5015563;28;20453;-51
2021/11/21 09:16:55;;;;;;;19.57;11.67;;;;;;;;;;5015268;28;20480;-51
2021/11/21 09:19:22;;;;;;;17.10;10.93;;;;;;;;;;5015494;28;20974;-51
2021/11/21 09:21:48;;;;;;;26.27;12.30;;;;;;;;;;5015277;28;20411;-51
2021/11/21 09:24:14;;;;;;;19.27;11.20;;;;;;;;;;5015335;28;20407;-51
2021/11/21 09:26:40;;;;;;;21.53;12.30;;;;;;;;;;5015146;28;20402;-51
2021/11/21 09:29:06;;;;;;;20.90;12.33;;;;;;;;;;5015364;28;20414;-51
2021/11/21 09:31:33;;;;;;;16.60;10.67;;;;;;;;;;5015270;28;20407;-51
2021/11/21 09:33:59;;;;;;;16.87;10.77;;;;;;;;;;5013763;28;20450;-52
2021/11/21 09:36:25;;;;;;;20.43;12.53;;;;;;;;;;5014871;28;20419;-52
2021/11/21 09:38:51;;;;;;;18.33;12.10;;;;;;;;;;5015019;28;20454;-50
2021/11/21 09:41:17;;;;;;;18.93;11.67;;;;;;;;;;5015014;28;20806;-51
2021/11/21 09:43:43;;;;;;;25.83;12.37;;;;;;;;;;5014973;28;20453;-51
2021/11/21 09:46:11;;;;;;;15.30;11.40;;;;;;;;;;5014740;28;20399;-51
2021/11/21 09:48:37;;;;;;;18.70;11.20;;;;;;;;;;5014893;28;20433;-52
2021/11/21 09:51:03;;;;;;;20.63;12.27;;;;;;;;;;5014865;28;20403;-51
2021/11/21 09:53:30;;;;;;;24.60;14.80;;;;;;;;;;5014670;28;20796;-51
2021/11/21 09:55:56;;;;;;;20.97;13.57;;;;;;;;;;5014541;28;20415;-51
2021/11/21 09:58:22;;;;;;;25.10;15.10;;;;;;;;;;5014642;28;20477;-51
2021/11/21 10:00:48;;;;;;;21.33;12.83;;;;;;;;;;5014621;28;20404;-51
2021/11/21 10:03:15;;;;;;;28.10;15.43;;;;;;;;;;5014425;28;20948;-52
2021/11/21 10:05:46;;;;;;;26.33;16.60;;;;;;;;;;5014370;28;20766;-51
2021/11/21 10:08:12;;;;;;;28.93;14.60;;;;;;;;;;5014571;28;20415;-52
2021/11/21 10:10:38;;;;;;;26.10;15.67;;;;;;;;;;5014498;28;20414;-51
2021/11/21 10:13:04;;;;;;;29.13;16.03;;;;;;;;;;5013230;28;20439;-52
2021/11/21 10:15:31;;;;;;;25.40;16.03;;;;;;;;;;5014240;28;20458;-51
2021/11/21 10:17:57;;;;;;;27.30;15.97;;;;;;;;;;5014185;28;20454;-52
2021/11/21 10:20:24;;;;;;;35.70;18.50;;;;;;;;;;5014323;28;20469;-51
2021/11/21 10:22:50;;;;;;;31.43;17.43;;;;;;;;;;5013579;28;20427;-51
2021/11/21 10:25:37;;;;;;;31.83;18.03;;;;;;;;;;5014023;28;20457;-51
2021/11/21 10:28:03;;;;;;;31.87;17.60;;;;;;;;;;5014044;28;20403;-53
2021/11/21 10:30:29;;;;;;;34.67;18.47;;;;;;;;;;5013990;28;20417;-51
2021/11/21 10:32:55;;;;;;;33.20;18.17;;;;;;;;;;5014400;28;20525;-53
2021/11/21 10:35:23;;;;;;;35.80;18.20;;;;;;;;;;5013836;28;20466;-53
2021/11/21 10:37:50;;;;;;;30.73;18.30;;;;;;;;;;5013795;28;20458;-53
2021/11/21 10:40:20;;;;;;;31.30;17.70;;;;;;;;;;5013905;28;20408;-53
2021/11/21 10:42:48;;;;;;;32.90;18.27;;;;;;;;;;5013366;28;20419;-53
2021/11/21 10:45:15;;;;;;;32.93;17.77;;;;;;;;;;5013561;28;20965;-53
2021/11/21 10:47:49;;;;;;;35.80;18.30;;;;;;;;;;5013610;28;20917;-53
2021/11/21 10:50:49;;;;;;;35.77;17.47;;;;;;;;;;5010837;28;20897;-53
2021/11/21 10:53:16;;;;;;;31.73;18.90;;;;;;;;;;4993493;28;20481;-53
2021/11/21 10:55:42;;;;;;;37.50;17.73;;;;;;;;;;5005388;28;20408;-53
2021/11/21 10:58:22;;;;;;;32.10;18.80;;;;;;;;;;5013987;28;20450;-53
2021/11/21 11:00:58;;;;;;;33.40;18.40;;;;;;;;;;5013457;28;20429;-53
2021/11/21 11:03:25;;;;;;;32.60;17.37;;;;;;;;;;5005321;28;20430;-53
2021/11/21 11:05:52;;;;;;;28.00;17.17;;;;;;;;;;5012648;28;20399;-53
2021/11/21 11:08:25;;;;;;;29.43;16.47;;;;;;;;;;4994121;28;20426;-53
2021/11/21 11:10:51;;;;;;;33.63;18.60;;;;;;;;;;5010862;28;20414;-53
2021/11/21 11:13:17;;;;;;;39.07;18.37;;;;;;;;;;5012573;28;20423;-53
2021/11/21 11:15:45;;;;;;;28.57;17.17;;;;;;;;;;5007326;28;20415;-53
2021/11/21 11:18:12;;;;;;;29.83;16.37;;;;;;;;;;5012479;28;20498;-53
2021/11/21 11:20:45;;;;;;;31.80;16.73;;;;;;;;;;5007653;28;20436;-53
2021/11/21 11:23:13;;;;;;;26.40;15.10;;;;;;;;;;5004540;28;20502;-53
2021/11/21 11:25:39;;;;;;;23.50;15.97;;;;;;;;;;5012530;28;20532;-53
2021/11/21 11:28:08;;;;;;;28.33;15.03;;;;;;;;;;5011725;28;20398;-53
2021/11/21 11:30:36;;;;;;;28.07;15.67;;;;;;;;;;5013081;28;20818;-53
2021/11/21 11:33:11;;;;;;;26.93;14.20;;;;;;;;;;5012482;28;20474;-53
2021/11/21 11:35:39;;;;;;;27.50;14.20;;;;;;;;;;5011787;28;20415;-54
2021/11/21 11:38:17;;;;;;;24.73;14.60;;;;;;;;;;5012066;28;20455;-53
2021/11/21 11:40:49;;;;;;;24.33;12.40;;;;;;;;;;5012872;28;20406;-54
2021/11/21 11:43:16;;;;;;;23.87;12.87;;;;;;;;;;5012840;28;20419;-53
2021/11/21 11:45:42;;;;;;;19.27;11.37;;;;;;;;;;5009507;28;20419;-53
2021/11/21 11:48:31;;;;;;;17.57;9.47;;;;;;;;;;5012152;28;21013;-53
2021/11/21 11:50:58;;;;;;;19.97;10.40;;;;;;;;;;5000181;28;20430;-53
2021/11/21 11:53:44;;;;;;;16.23;9.63;;;;;;;;;;5012300;28;20438;-53
2021/11/21 11:56:11;;;;;;;21.07;10.30;;;;;;;;;;5011777;28;20411;-53
2021/11/21 11:58:47;;;;;;;24.83;11.00;;;;;;;;;;5011239;28;20454;-54
2021/11/21 12:01:13;;;;;;;16.63;9.17;;;;;;;;;;5013029;28;20506;-53
2021/11/21 12:03:40;;;;;;;17.33;9.77;;;;;;;;;;5012199;28;20507;-53
2021/11/21 12:06:07;;;;;;;19.60;8.63;;;;;;;;;;5012097;28;20443;-53
2021/11/21 12:08:35;;;;;;;13.60;8.20;;;;;;;;;;5011384;28;20424;-53
2021/11/21 12:11:02;;;;;;;12.93;7.37;;;;;;;;;;5011036;28;20974;-53
2021/11/21 12:13:29;;;;;;;17.30;8.87;;;;;;;;;;5011721;28;20428;-53
2021/11/21 12:21:55;;;;;;;14.50;7.50;;;;;;;;;;4977383;28;20260;-52
2021/11/21 12:24:25;;;;;;;9.87;6.37;;;;;;;;;;4991869;28;20680;-50
2021/11/21 12:26:51;;;;;;;16.53;7.80;;;;;;;;;;4990757;28;20400;-50
2021/11/21 12:29:22;;;;;;;13.17;7.47;;;;;;;;;;4989520;28;20429;-50
2021/11/21 12:31:48;;;;;;;16.53;7.53;;;;;;;;;;4991854;28;20416;-50
2021/11/21 12:34:26;;;;;;;13.77;6.80;;;;;;;;;;4974888;28;20432;-50
2021/11/21 12:37:09;;;;;;;14.60;6.70;;;;;;;;;;4992177;28;20408;-50
2021/11/21 12:39:35;;;;;;;17.77;6.97;;;;;;;;;;4992113;28;20436;-50
2021/11/21 12:42:05;;;;;;;10.43;6.20;;;;;;;;;;4992283;28;20954;-51
2021/11/21 12:44:31;;;;;;;13.20;6.07;;;;;;;;;;4994066;28;20820;-51
2021/11/21 12:47:01;;;;;;;11.83;6.03;;;;;;;;;;4996247;28;20403;-50
2021/11/21 12:49:27;;;;;;;8.83;5.43;;;;;;;;;;4996956;28;20420;-51
2021/11/21 12:52:25;;;;;;;12.23;5.40;;;;;;;;;;4998428;28;20495;-50
2021/11/21 12:54:52;;;;;;;21.17;6.37;;;;;;;;;;4955930;28;20420;-51
2021/11/21 12:57:18;;;;;;;13.90;5.93;;;;;;;;;;4999043;28;20438;-52
2021/11/21 12:59:51;;;;;;;13.63;5.30;;;;;;;;;;4998499;28;20427;-51
2021/11/21 13:02:20;;;;;;;10.40;5.70;;;;;;;;;;4998951;28;20407;-51
2021/11/21 13:05:04;;;;;;;14.83;5.50;;;;;;;;;;4998580;28;20408;-51
2021/11/21 13:07:30;;;;;;;13.60;5.87;;;;;;;;;;4998248;28;20421;-51
2021/11/21 13:09:58;;;;;;;13.13;5.70;;;;;;;;;;4998028;28;20825;-50
2021/11/21 13:12:31;;;;;;;10.60;5.60;;;;;;;;;;4998661;28;20404;-52
2021/11/21 13:14:58;;;;;;;13.90;5.57;;;;;;;;;;4998980;28;20483;-50
2021/11/21 13:17:24;;;;;;;8.50;3.30;;;;;;;;;;4999088;28;20408;-51
2021/11/21 13:20:09;;;;;;;13.50;4.00;;;;;;;;;;4997987;28;20912;-52
2021/11/21 13:22:50;;;;;;;6.30;3.70;;;;;;;;;;4998089;28;20421;-50
2021/11/21 13:25:45;;;;;;;10.50;3.20;;;;;;;;;;4998910;28;20865;-51
2021/11/21 13:28:25;;;;;;;5.87;2.67;;;;;;;;;;4980757;28;21002;-50
2021/11/21 13:30:54;;;;;;;8.23;2.33;;;;;;;;;;4997965;28;20407;-51
2021/11/21 13:33:21;;;;;;;8.50;2.83;;;;;;;;;;4997535;28;20537;-51
2021/11/21 13:35:54;;;;;;;5.40;2.50;;;;;;;;;;4997143;28;20404;-51
2021/11/21 13:38:21;;;;;;;8.33;2.60;;;;;;;;;;4996400;28;20455;-50
2021/11/21 13:40:47;;;;;;;11.57;3.30;;;;;;;;;;4996391;28;20892;-53
2021/11/21 13:43:13;;;;;;;9.50;2.23;;;;;;;;;;4997270;28;20447;-50
2021/11/21 13:45:39;;;;;;;9.43;2.20;;;;;;;;;;4997561;28;20491;-52
2021/11/21 13:48:24;;;;;;;6.37;2.50;;;;;;;;;;4996339;28;20791;-52
2021/11/21 13:50:50;;;;;;;7.80;2.53;;;;;;;;;;4996592;28;20899;-52
2021/11/21 13:53:16;;;;;;;7.50;2.43;;;;;;;;;;4995670;28;20408;-51
2021/11/21 13:55:42;;;;;;;5.93;2.60;;;;;;;;;;4996378;28;20914;-52
2021/11/21 13:58:08;;;;;;;7.70;2.30;;;;;;;;;;4994794;28;20451;-51
2021/11/21 14:00:34;;;;;;;5.00;2.60;;;;;;;;;;4995742;28;20535;-51
2021/11/21 14:03:04;;;;;;;5.07;2.40;;;;;;;;;;4995832;28;20404;-49
2021/11/21 14:05:30;;;;;;;11.63;2.70;;;;;;;;;;4995849;28;20462;-53
2021/11/21 14:07:56;;;;;;;4.33;2.30;;;;;;;;;;4996089;28;20499;-52
2021/11/21 14:10:28;;;;;;;9.63;2.70;;;;;;;;;;4995533;28;20857;-51
2021/11/21 14:13:06;;;;;;;8.40;2.23;;;;;;;;;;4996113;28;20415;-51
2021/11/21 14:15:32;;;;;;;7.57;3.03;;;;;;;;;;4995897;28;20399;-52
2021/11/21 14:18:00;;;;;;;4.80;1.83;;;;;;;;;;4996588;28;20597;-51
2021/11/21 14:20:43;;;;;;;12.03;2.83;;;;;;;;;;4995458;28;20931;-52
2021/11/21 14:23:19;;;;;;;5.43;2.30;;;;;;;;;;4996063;28;20814;-51
2021/11/21 14:25:46;;;;;;;12.07;2.83;;;;;;;;;;4995930;28;20415;-50
2021/11/21 14:28:20;;;;;;;9.40;2.70;;;;;;;;;;4995955;28;20416;-51